createdAt,value
2018-10-11T00:00:47.000Z,32
2018-10-11T00:01:47.000Z,32
2018-10-11T00:02:47.000Z,32
2018-10-11T00:03:47.000Z,32
2018-10-11T00:04:47.000Z,32
2018-10-11T00:05:47.000Z,32
2018-10-11T00:06:47.000Z,32
2018-10-11T00:08:47.000Z,32
2018-10-11T00:09:47.000Z,32
2018-10-11T00:10:47.000Z,32
2018-10-11T00:12:47.000Z,32
2018-10-11T00:13:47.000Z,32
2018-10-11T00:14:47.000Z,32
2018-10-11T00:15:47.000Z,32
2018-10-11T00:16:47.000Z,32
2018-10-11T00:17:47.000Z,32
2018-10-11T00:19:47.000Z,32
2018-10-11T00:20:47.000Z,32
2018-10-11T00:21:47.000Z,32
2018-10-11T00:22:47.000Z,32
2018-10-11T00:23:47.000Z,32
2018-10-11T00:24:47.000Z,32
2018-10-11T00:25:47.000Z,32
2018-10-11T00:26:47.000Z,32
2018-10-11T00:27:47.000Z,32
2018-10-11T00:28:47.000Z,32
2018-10-11T00:30:47.000Z,32
2018-10-11T00:31:47.000Z,32
2018-10-11T00:32:47.000Z,32
2018-10-11T00:33:47.000Z,32
2018-10-11T00:35:47.000Z,32
2018-10-11T00:36:47.000Z,32
2018-10-11T00:37:47.000Z,32
2018-10-11T00:38:47.000Z,32
2018-10-11T00:39:47.000Z,32
2018-10-11T00:40:47.000Z,32
2018-10-11T00:41:47.000Z,32
2018-10-11T00:42:47.000Z,32
2018-10-11T00:43:47.000Z,32
2018-10-11T00:44:47.000Z,32
2018-10-11T00:45:47.000Z,32
2018-10-11T00:47:47.000Z,32
2018-10-11T00:48:47.000Z,32
2018-10-11T00:49:47.000Z,32
2018-10-11T00:51:47.000Z,32
2018-10-11T00:52:47.000Z,32
2018-10-11T00:54:47.000Z,32
2018-10-11T00:55:47.000Z,32
2018-10-11T00:56:47.000Z,32
2018-10-11T00:57:47.000Z,32
2018-10-11T00:58:47.000Z,32
2018-10-11T00:59:47.000Z,32
2018-10-11T01:00:47.000Z,32
2018-10-11T01:01:47.000Z,32
2018-10-11T01:03:47.000Z,32
2018-10-11T01:04:47.000Z,32
2018-10-11T01:05:47.000Z,32
2018-10-11T01:07:47.000Z,32
2018-10-11T01:08:47.000Z,32
2018-10-11T01:09:47.000Z,32
2018-10-11T01:10:47.000Z,32
2018-10-11T01:11:47.000Z,32
2018-10-11T01:12:47.000Z,32
2018-10-11T01:13:47.000Z,32
2018-10-11T01:14:47.000Z,32
2018-10-11T01:15:47.000Z,32
2018-10-11T01:16:47.000Z,32
2018-10-11T01:17:47.000Z,32
2018-10-11T01:18:47.000Z,32
2018-10-11T01:19:47.000Z,32
2018-10-11T01:20:47.000Z,32
2018-10-11T01:21:47.000Z,32
2018-10-11T01:23:47.000Z,32
2018-10-11T01:24:47.000Z,32
2018-10-11T01:25:47.000Z,32
2018-10-11T01:26:47.000Z,32
2018-10-11T01:27:47.000Z,32
2018-10-11T01:28:47.000Z,32
2018-10-11T01:29:47.000Z,32
2018-10-11T01:30:47.000Z,32
2018-10-11T01:31:47.000Z,32
2018-10-11T01:32:47.000Z,32
2018-10-11T01:33:47.000Z,32
2018-10-11T01:34:47.000Z,32
2018-10-11T01:35:47.000Z,32
2018-10-11T01:36:47.000Z,32
2018-10-11T01:37:47.000Z,32
2018-10-11T01:39:47.000Z,32
2018-10-11T01:40:47.000Z,32
2018-10-11T01:41:47.000Z,32
2018-10-11T01:42:47.000Z,32
2018-10-11T01:43:47.000Z,32
2018-10-11T01:44:47.000Z,32
2018-10-11T01:45:47.000Z,32
2018-10-11T01:46:47.000Z,32
2018-10-11T01:47:47.000Z,32
2018-10-11T01:48:47.000Z,32
2018-10-11T01:49:47.000Z,32
2018-10-11T01:50:47.000Z,32
2018-10-11T01:51:47.000Z,32
2018-10-11T01:52:47.000Z,32
2018-10-11T01:53:47.000Z,32
2018-10-11T01:54:47.000Z,32
2018-10-11T01:55:47.000Z,32
2018-10-11T01:56:47.000Z,32
2018-10-11T01:57:47.000Z,32
2018-10-11T01:58:47.000Z,32
2018-10-11T01:59:47.000Z,32
2018-10-11T02:01:47.000Z,31
2018-10-11T02:02:47.000Z,32
2018-10-11T02:03:47.000Z,32
2018-10-11T02:04:47.000Z,32
2018-10-11T02:06:47.000Z,31
2018-10-11T02:07:47.000Z,32
2018-10-11T02:08:47.000Z,32
2018-10-11T02:09:47.000Z,32
2018-10-11T02:10:47.000Z,32
2018-10-11T02:11:47.000Z,31
2018-10-11T02:12:47.000Z,32
2018-10-11T02:13:47.000Z,32
2018-10-11T02:14:47.000Z,32
2018-10-11T02:15:47.000Z,32
2018-10-11T02:16:47.000Z,32
2018-10-11T02:17:47.000Z,32
2018-10-11T02:18:47.000Z,31
2018-10-11T02:20:47.000Z,31
2018-10-11T02:21:47.000Z,32
2018-10-11T02:22:47.000Z,32
2018-10-11T02:23:47.000Z,32
2018-10-11T02:24:47.000Z,32
2018-10-11T02:25:47.000Z,32
2018-10-11T02:26:47.000Z,32
2018-10-11T02:27:47.000Z,32
2018-10-11T02:28:47.000Z,32
2018-10-11T02:29:47.000Z,32
2018-10-11T02:30:47.000Z,32
2018-10-11T02:31:47.000Z,32
2018-10-11T02:32:47.000Z,32
2018-10-11T02:33:47.000Z,32
2018-10-11T02:34:47.000Z,32
2018-10-11T02:35:47.000Z,32
2018-10-11T02:37:47.000Z,31
2018-10-11T02:38:47.000Z,32
2018-10-11T02:39:47.000Z,32
2018-10-11T02:40:47.000Z,31
2018-10-11T02:41:47.000Z,32
2018-10-11T02:42:47.000Z,31
2018-10-11T02:43:47.000Z,32
2018-10-11T02:44:47.000Z,32
2018-10-11T02:45:47.000Z,32
2018-10-11T02:46:47.000Z,31
2018-10-11T02:48:47.000Z,31
2018-10-11T02:49:47.000Z,32
2018-10-11T02:50:47.000Z,31
2018-10-11T02:51:47.000Z,32
2018-10-11T02:52:47.000Z,32
2018-10-11T02:53:47.000Z,32
2018-10-11T02:54:47.000Z,32
2018-10-11T02:56:47.000Z,31
2018-10-11T02:57:47.000Z,32
2018-10-11T02:58:47.000Z,32
2018-10-11T02:59:47.000Z,31
2018-10-11T03:00:47.000Z,32
2018-10-11T03:01:47.000Z,31
2018-10-11T03:02:47.000Z,32
2018-10-11T03:03:47.000Z,31
2018-10-11T03:04:47.000Z,32
2018-10-11T03:05:47.000Z,31
2018-10-11T03:06:47.000Z,32
2018-10-11T03:07:47.000Z,32
2018-10-11T03:08:47.000Z,32
2018-10-11T03:09:47.000Z,32
2018-10-11T03:10:47.000Z,31
2018-10-11T03:11:47.000Z,32
2018-10-11T03:12:47.000Z,32
2018-10-11T03:13:47.000Z,32
2018-10-11T03:14:47.000Z,31
2018-10-11T03:15:47.000Z,32
2018-10-11T03:16:47.000Z,32
2018-10-11T03:17:47.000Z,31
2018-10-11T03:18:47.000Z,32
2018-10-11T03:19:47.000Z,32
2018-10-11T03:20:47.000Z,32
2018-10-11T03:21:47.000Z,32
2018-10-11T03:22:47.000Z,31
2018-10-11T03:23:47.000Z,31
2018-10-11T03:25:47.000Z,31
2018-10-11T03:26:47.000Z,31
2018-10-11T03:27:47.000Z,31
2018-10-11T03:28:47.000Z,31
2018-10-11T03:29:47.000Z,31
2018-10-11T03:30:47.000Z,31
2018-10-11T03:31:47.000Z,32
2018-10-11T03:32:47.000Z,31
2018-10-11T03:33:47.000Z,31
2018-10-11T03:35:47.000Z,31
2018-10-11T03:36:47.000Z,32
2018-10-11T03:37:47.000Z,31
2018-10-11T03:38:47.000Z,32
2018-10-11T03:39:47.000Z,31
2018-10-11T03:40:47.000Z,32
2018-10-11T03:42:47.000Z,32
2018-10-11T03:43:47.000Z,32
2018-10-11T03:44:47.000Z,32
2018-10-11T03:45:47.000Z,32
2018-10-11T03:46:47.000Z,32
2018-10-11T03:47:47.000Z,32
2018-10-11T03:48:47.000Z,32
2018-10-11T03:49:47.000Z,32
2018-10-11T03:50:47.000Z,32
2018-10-11T03:51:47.000Z,32
2018-10-11T03:52:47.000Z,32
2018-10-11T03:54:47.000Z,32
2018-10-11T03:55:47.000Z,32
2018-10-11T03:56:47.000Z,32
2018-10-11T03:57:47.000Z,32
2018-10-11T03:58:47.000Z,32
2018-10-11T03:59:47.000Z,33
2018-10-11T04:01:47.000Z,34
2018-10-11T04:02:47.000Z,35
2018-10-11T04:04:47.000Z,35
2018-10-11T04:05:47.000Z,36
2018-10-11T04:06:47.000Z,36
2018-10-11T04:07:47.000Z,36
2018-10-11T04:08:47.000Z,36
2018-10-11T04:09:47.000Z,37
2018-10-11T04:10:47.000Z,37
2018-10-11T04:11:47.000Z,37
2018-10-11T04:12:47.000Z,37
2018-10-11T04:13:47.000Z,37
2018-10-11T04:14:47.000Z,37
2018-10-11T04:15:47.000Z,37
2018-10-11T04:16:47.000Z,37
2018-10-11T04:17:47.000Z,37
2018-10-11T04:18:47.000Z,37
2018-10-11T04:20:47.000Z,37
2018-10-11T04:22:47.000Z,37
2018-10-11T04:23:47.000Z,37
2018-10-11T04:24:47.000Z,37
2018-10-11T04:25:47.000Z,37
2018-10-11T04:26:47.000Z,37
2018-10-11T04:27:47.000Z,37
2018-10-11T04:28:47.000Z,37
2018-10-11T04:29:47.000Z,37
2018-10-11T04:30:47.000Z,37
2018-10-11T04:31:47.000Z,37
2018-10-11T04:32:47.000Z,37
2018-10-11T04:33:47.000Z,37
2018-10-11T04:34:47.000Z,37
2018-10-11T04:35:47.000Z,36
2018-10-11T04:36:47.000Z,37
2018-10-11T04:37:47.000Z,36
2018-10-11T04:38:47.000Z,36
2018-10-11T04:39:47.000Z,37
2018-10-11T04:40:47.000Z,36
2018-10-11T04:42:47.000Z,36
2018-10-11T04:43:47.000Z,36
2018-10-11T04:44:47.000Z,36
2018-10-11T04:45:47.000Z,36
2018-10-11T04:46:47.000Z,36
2018-10-11T04:47:47.000Z,36
2018-10-11T04:48:47.000Z,36
2018-10-11T04:49:47.000Z,36
2018-10-11T04:50:47.000Z,36
2018-10-11T04:51:47.000Z,36
2018-10-11T04:52:47.000Z,36
2018-10-11T04:53:47.000Z,36
2018-10-11T04:55:47.000Z,36
2018-10-11T04:56:47.000Z,36
2018-10-11T04:57:47.000Z,36
2018-10-11T04:58:47.000Z,36
2018-10-11T04:59:47.000Z,36
2018-10-11T05:00:47.000Z,36
2018-10-11T05:01:47.000Z,36
2018-10-11T05:03:47.000Z,35
2018-10-11T05:05:47.000Z,35
2018-10-11T05:06:47.000Z,36
2018-10-11T05:07:47.000Z,36
2018-10-11T05:08:47.000Z,36
2018-10-11T05:09:47.000Z,35
2018-10-11T05:10:47.000Z,35
2018-10-11T05:11:47.000Z,35
2018-10-11T05:12:47.000Z,35
2018-10-11T05:13:47.000Z,35
2018-10-11T05:14:47.000Z,35
2018-10-11T05:15:47.000Z,35
2018-10-11T05:16:47.000Z,35
2018-10-11T05:17:47.000Z,35
2018-10-11T05:18:47.000Z,35
2018-10-11T05:19:47.000Z,35
2018-10-11T05:20:47.000Z,35
2018-10-11T05:21:47.000Z,35
2018-10-11T05:22:47.000Z,35
2018-10-11T05:23:47.000Z,35
2018-10-11T05:24:47.000Z,35
2018-10-11T05:25:47.000Z,35
2018-10-11T05:26:47.000Z,35
2018-10-11T05:27:47.000Z,35
2018-10-11T05:28:47.000Z,35
2018-10-11T05:29:47.000Z,35
2018-10-11T05:31:47.000Z,35
2018-10-11T05:32:47.000Z,35
2018-10-11T05:33:47.000Z,35
2018-10-11T05:34:47.000Z,35
2018-10-11T05:35:47.000Z,35
2018-10-11T05:36:47.000Z,35
2018-10-11T05:37:47.000Z,35
2018-10-11T05:39:47.000Z,34
2018-10-11T05:41:47.000Z,34
2018-10-11T05:43:47.000Z,34
2018-10-11T05:44:47.000Z,35
2018-10-11T05:45:47.000Z,35
2018-10-11T05:46:47.000Z,35
2018-10-11T05:47:47.000Z,35
2018-10-11T05:48:47.000Z,34
2018-10-11T05:49:47.000Z,35
2018-10-11T05:50:47.000Z,34
2018-10-11T05:51:47.000Z,35
2018-10-11T05:52:47.000Z,34
2018-10-11T05:53:47.000Z,34
2018-10-11T05:54:47.000Z,34
2018-10-11T05:55:47.000Z,34
2018-10-11T05:56:47.000Z,34
2018-10-11T05:57:47.000Z,34
2018-10-11T05:58:47.000Z,34
2018-10-11T06:00:47.000Z,34
2018-10-11T06:01:47.000Z,34
2018-10-11T06:03:47.000Z,34
2018-10-11T06:04:47.000Z,34
2018-10-11T06:05:47.000Z,34
2018-10-11T06:06:47.000Z,34
2018-10-11T06:07:47.000Z,34
2018-10-11T06:08:47.000Z,34
2018-10-11T06:09:47.000Z,34
2018-10-11T06:10:47.000Z,34
2018-10-11T06:13:47.000Z,34
2018-10-11T06:14:47.000Z,34
2018-10-11T06:15:47.000Z,33
2018-10-11T06:16:47.000Z,33
2018-10-11T06:18:47.000Z,33
2018-10-11T06:19:47.000Z,33
2018-10-11T06:20:47.000Z,33
2018-10-11T06:21:47.000Z,33
2018-10-11T06:22:47.000Z,33
2018-10-11T06:23:47.000Z,34
2018-10-11T06:24:47.000Z,34
2018-10-11T06:25:47.000Z,34
2018-10-11T06:26:47.000Z,34
2018-10-11T06:27:47.000Z,34
2018-10-11T06:28:48.000Z,34
2018-10-11T06:29:48.000Z,34
2018-10-11T06:30:48.000Z,34
2018-10-11T06:31:48.000Z,34
2018-10-11T06:32:48.000Z,34
2018-10-11T06:33:48.000Z,34
2018-10-11T06:34:48.000Z,34
2018-10-11T06:36:48.000Z,34
2018-10-11T06:37:48.000Z,34
2018-10-11T06:38:48.000Z,34
2018-10-11T06:39:48.000Z,34
2018-10-11T06:40:48.000Z,34
2018-10-11T06:41:48.000Z,34
2018-10-11T06:43:48.000Z,34
2018-10-11T06:44:48.000Z,34
2018-10-11T06:45:48.000Z,34
2018-10-11T06:46:48.000Z,34
2018-10-11T06:48:48.000Z,34
2018-10-11T06:49:48.000Z,34
2018-10-11T06:50:48.000Z,34
2018-10-11T06:51:48.000Z,34
2018-10-11T06:52:48.000Z,34
2018-10-11T06:53:48.000Z,34
2018-10-11T06:54:48.000Z,34
2018-10-11T06:55:48.000Z,34
2018-10-11T06:57:48.000Z,34
2018-10-11T06:58:48.000Z,34
2018-10-11T06:59:48.000Z,34
2018-10-11T07:00:48.000Z,34
2018-10-11T07:02:48.000Z,33
2018-10-11T07:03:48.000Z,33
2018-10-11T07:04:48.000Z,33
2018-10-11T07:06:48.000Z,33
2018-10-11T07:08:48.000Z,33
2018-10-11T07:09:48.000Z,33
2018-10-11T07:10:48.000Z,33
2018-10-11T07:11:48.000Z,33
2018-10-11T07:12:48.000Z,33
2018-10-11T07:13:48.000Z,33
2018-10-11T07:14:48.000Z,33
2018-10-11T07:15:48.000Z,33
2018-10-11T07:16:48.000Z,33
2018-10-11T07:17:48.000Z,33
2018-10-11T07:18:48.000Z,33
2018-10-11T07:19:48.000Z,33
2018-10-11T07:20:48.000Z,33
2018-10-11T07:22:48.000Z,32
2018-10-11T07:24:48.000Z,32
2018-10-11T07:25:48.000Z,32
2018-10-11T07:26:48.000Z,32
2018-10-11T07:27:48.000Z,32
2018-10-11T07:28:48.000Z,32
2018-10-11T07:29:48.000Z,32
2018-10-11T07:30:48.000Z,32
2018-10-11T07:31:48.000Z,32
2018-10-11T07:32:48.000Z,32
2018-10-11T07:33:48.000Z,32
2018-10-11T07:35:48.000Z,31
2018-10-11T07:36:48.000Z,32
2018-10-11T07:37:48.000Z,32
2018-10-11T07:38:48.000Z,32
2018-10-11T07:39:48.000Z,32
2018-10-11T07:40:48.000Z,32
2018-10-11T07:41:48.000Z,32
2018-10-11T07:42:48.000Z,31
2018-10-11T07:43:48.000Z,31
2018-10-11T07:44:48.000Z,31
2018-10-11T07:45:48.000Z,31
2018-10-11T07:46:48.000Z,31
2018-10-11T07:47:48.000Z,31
2018-10-11T07:48:48.000Z,31
2018-10-11T07:49:48.000Z,31
2018-10-11T07:50:48.000Z,31
2018-10-11T07:51:48.000Z,31
2018-10-11T07:52:48.000Z,30
2018-10-11T07:54:48.000Z,30
2018-10-11T07:55:48.000Z,30
2018-10-11T07:56:48.000Z,30
2018-10-11T07:57:48.000Z,30
2018-10-11T07:59:48.000Z,30
2018-10-11T08:00:48.000Z,30
2018-10-11T08:01:48.000Z,30
2018-10-11T08:03:48.000Z,30
2018-10-11T08:04:48.000Z,30
2018-10-11T08:05:48.000Z,30
2018-10-11T08:06:48.000Z,30
2018-10-11T08:07:48.000Z,30
2018-10-11T08:08:48.000Z,30
2018-10-11T08:09:48.000Z,30
2018-10-11T08:10:48.000Z,31
2018-10-11T08:11:48.000Z,30
2018-10-11T08:12:48.000Z,31
2018-10-11T08:14:48.000Z,30
2018-10-11T08:15:48.000Z,31
2018-10-11T08:16:48.000Z,31
2018-10-11T08:17:48.000Z,31
2018-10-11T08:18:48.000Z,31
2018-10-11T08:19:48.000Z,31
2018-10-11T08:20:48.000Z,31
2018-10-11T08:21:48.000Z,31
2018-10-11T08:22:48.000Z,30
2018-10-11T08:23:48.000Z,31
2018-10-11T08:24:48.000Z,31
2018-10-11T08:25:48.000Z,31
2018-10-11T08:26:48.000Z,31
2018-10-11T08:27:48.000Z,31
2018-10-11T08:28:48.000Z,31
2018-10-11T08:29:48.000Z,31
2018-10-11T08:30:48.000Z,31
2018-10-11T08:32:48.000Z,31
2018-10-11T08:33:48.000Z,31
2018-10-11T08:34:48.000Z,31
2018-10-11T08:35:48.000Z,31
2018-10-11T08:36:47.000Z,31
2018-10-11T08:37:47.000Z,31
2018-10-11T08:38:47.000Z,31
2018-10-11T08:40:47.000Z,31
2018-10-11T08:41:47.000Z,31
2018-10-11T08:42:47.000Z,31
2018-10-11T08:44:47.000Z,31
2018-10-11T08:45:47.000Z,31
2018-10-11T08:46:47.000Z,31
2018-10-11T08:47:47.000Z,31
2018-10-11T08:48:47.000Z,31
2018-10-11T08:49:47.000Z,31
2018-10-11T08:50:47.000Z,31
2018-10-11T08:51:47.000Z,31
2018-10-11T08:52:47.000Z,31
2018-10-11T08:53:47.000Z,31
2018-10-11T08:54:47.000Z,31
2018-10-11T08:55:47.000Z,31
2018-10-11T08:57:47.000Z,31
2018-10-11T08:58:47.000Z,31
2018-10-11T08:59:47.000Z,31
2018-10-11T09:00:47.000Z,31
2018-10-11T09:01:47.000Z,31
2018-10-11T09:02:47.000Z,31
2018-10-11T09:03:47.000Z,31
2018-10-11T09:05:47.000Z,31
2018-10-11T09:06:47.000Z,31
2018-10-11T09:07:47.000Z,31
2018-10-11T09:08:47.000Z,31
2018-10-11T09:09:47.000Z,31
2018-10-11T09:11:47.000Z,31
2018-10-11T09:12:47.000Z,31
2018-10-11T09:13:47.000Z,31
2018-10-11T09:14:47.000Z,31
2018-10-11T09:15:47.000Z,31
2018-10-11T09:17:47.000Z,31
2018-10-11T09:18:47.000Z,31
2018-10-11T09:19:47.000Z,31
2018-10-11T09:20:47.000Z,31
2018-10-11T09:21:47.000Z,31
2018-10-11T09:22:47.000Z,31
2018-10-11T09:24:47.000Z,31
2018-10-11T09:25:47.000Z,31
2018-10-11T09:26:47.000Z,31
2018-10-11T09:27:47.000Z,31
2018-10-11T09:28:47.000Z,31
2018-10-11T09:29:47.000Z,31
2018-10-11T09:30:47.000Z,31
2018-10-11T09:31:47.000Z,31
2018-10-11T09:32:47.000Z,31
2018-10-11T09:33:47.000Z,31
2018-10-11T09:34:47.000Z,31
2018-10-11T09:35:47.000Z,31
2018-10-11T09:36:47.000Z,31
2018-10-11T09:37:47.000Z,31
2018-10-11T09:38:47.000Z,31
2018-10-11T09:39:48.000Z,31
2018-10-11T09:40:48.000Z,31
2018-10-11T09:41:48.000Z,31
2018-10-11T09:42:48.000Z,31
2018-10-11T09:43:48.000Z,31
2018-10-11T09:44:48.000Z,31
2018-10-11T09:45:48.000Z,31
2018-10-11T09:46:48.000Z,31
2018-10-11T09:47:48.000Z,31
2018-10-11T09:48:48.000Z,31
2018-10-11T09:49:48.000Z,30
2018-10-11T09:50:48.000Z,31
2018-10-11T09:51:48.000Z,30
2018-10-11T09:52:48.000Z,30
2018-10-11T09:53:48.000Z,30
2018-10-11T09:54:48.000Z,30
2018-10-11T09:55:48.000Z,30
2018-10-11T09:56:48.000Z,30
2018-10-11T09:58:48.000Z,30
2018-10-11T10:00:48.000Z,30
2018-10-11T10:01:48.000Z,31
2018-10-11T10:02:48.000Z,31
2018-10-11T10:03:48.000Z,31
2018-10-11T10:04:48.000Z,31
2018-10-11T10:05:48.000Z,31
2018-10-11T10:06:48.000Z,31
2018-10-11T10:08:48.000Z,30
2018-10-11T10:09:48.000Z,31
2018-10-11T10:11:48.000Z,31
2018-10-11T10:12:48.000Z,31
2018-10-11T10:13:48.000Z,31
2018-10-11T10:14:48.000Z,31
2018-10-11T10:15:48.000Z,31
2018-10-11T10:16:48.000Z,31
2018-10-11T10:17:48.000Z,31
2018-10-11T10:18:48.000Z,31
2018-10-11T10:19:48.000Z,31
2018-10-11T10:21:48.000Z,31
2018-10-11T10:22:48.000Z,31
2018-10-11T10:24:48.000Z,31
2018-10-11T10:26:48.000Z,31
2018-10-11T10:27:48.000Z,31
2018-10-11T10:28:48.000Z,31
2018-10-11T10:29:48.000Z,31
2018-10-11T10:30:48.000Z,31
2018-10-11T10:31:48.000Z,31
2018-10-11T10:32:48.000Z,31
2018-10-11T10:34:48.000Z,30
2018-10-11T10:35:48.000Z,30
2018-10-11T10:36:48.000Z,30
2018-10-11T10:37:48.000Z,30
2018-10-11T10:38:48.000Z,30
2018-10-11T10:39:48.000Z,30
2018-10-11T10:40:48.000Z,30
2018-10-11T10:41:48.000Z,30
2018-10-11T10:43:47.000Z,30
2018-10-11T10:44:47.000Z,31
2018-10-11T10:45:47.000Z,31
2018-10-11T10:47:47.000Z,30
2018-10-11T10:48:47.000Z,30
2018-10-11T10:49:47.000Z,31
2018-10-11T10:50:47.000Z,30
2018-10-11T10:51:47.000Z,30
2018-10-11T10:52:47.000Z,30
2018-10-11T10:53:47.000Z,30
2018-10-11T10:54:47.000Z,30
2018-10-11T10:55:47.000Z,30
2018-10-11T10:56:47.000Z,30
2018-10-11T10:57:47.000Z,30
2018-10-11T10:58:47.000Z,30
2018-10-11T11:08:34.000Z,31
2018-10-11T11:09:34.000Z,31
2018-10-11T11:10:34.000Z,31
2018-10-11T11:11:34.000Z,31
2018-10-11T11:12:34.000Z,31
2018-10-11T11:13:34.000Z,31
2018-10-11T11:14:34.000Z,31
2018-10-11T11:15:34.000Z,31
2018-10-11T11:17:34.000Z,31
2018-10-11T11:18:34.000Z,31
2018-10-11T11:20:34.000Z,31
2018-10-11T11:22:34.000Z,30
2018-10-11T11:23:34.000Z,31
2018-10-11T11:25:34.000Z,31
2018-10-11T11:26:34.000Z,31
2018-10-11T11:28:34.000Z,31
2018-10-11T11:29:34.000Z,31
2018-10-11T11:30:34.000Z,31
2018-10-11T11:31:34.000Z,31
2018-10-11T11:32:34.000Z,31
2018-10-11T11:33:34.000Z,31
2018-10-11T11:34:34.000Z,31
2018-10-11T11:35:34.000Z,31
2018-10-11T11:36:34.000Z,31
2018-10-11T11:38:34.000Z,31
2018-10-11T11:39:34.000Z,31
2018-10-11T11:40:34.000Z,31
2018-10-11T11:41:34.000Z,31
2018-10-11T11:42:34.000Z,32
2018-10-11T11:44:34.000Z,31
2018-10-11T11:45:34.000Z,31
2018-10-11T11:47:34.000Z,31
2018-10-11T11:48:34.000Z,31
2018-10-11T11:49:34.000Z,31
2018-10-11T11:50:34.000Z,31
2018-10-11T11:51:34.000Z,31
2018-10-11T11:52:34.000Z,32
2018-10-11T11:53:34.000Z,31
2018-10-11T11:54:34.000Z,31
2018-10-11T11:56:34.000Z,31
2018-10-11T11:57:34.000Z,31
2018-10-11T11:59:34.000Z,31
2018-10-11T12:00:34.000Z,31
2018-10-11T12:01:34.000Z,31
2018-10-11T12:03:34.000Z,31
2018-10-11T12:04:34.000Z,31
2018-10-11T12:05:34.000Z,31
2018-10-11T12:06:34.000Z,31
2018-10-11T12:07:34.000Z,31
2018-10-11T12:08:34.000Z,31
2018-10-11T12:09:34.000Z,31
2018-10-11T12:10:34.000Z,31
2018-10-11T12:11:34.000Z,31
2018-10-11T12:12:34.000Z,31
2018-10-11T12:13:34.000Z,31
2018-10-11T12:14:34.000Z,31
2018-10-11T12:15:34.000Z,31
2018-10-11T12:16:34.000Z,31
2018-10-11T12:17:34.000Z,31
2018-10-11T12:19:34.000Z,31
2018-10-11T12:20:34.000Z,31
2018-10-11T12:21:34.000Z,31
2018-10-11T12:22:34.000Z,31
2018-10-11T12:23:34.000Z,31
2018-10-11T12:24:34.000Z,31
2018-10-11T12:25:34.000Z,31
2018-10-11T12:26:34.000Z,31
2018-10-11T12:27:34.000Z,31
2018-10-11T12:28:34.000Z,31
2018-10-11T12:29:34.000Z,31
2018-10-11T12:30:34.000Z,31
2018-10-11T12:32:34.000Z,30
2018-10-11T12:33:34.000Z,31
2018-10-11T12:34:34.000Z,30
2018-10-11T12:35:34.000Z,31
2018-10-11T12:36:34.000Z,31
2018-10-11T12:38:34.000Z,31
2018-10-11T12:39:34.000Z,31
2018-10-11T12:40:34.000Z,30
2018-10-11T12:42:34.000Z,30
2018-10-11T12:43:34.000Z,30
2018-10-11T12:44:34.000Z,31
2018-10-11T12:45:34.000Z,30
2018-10-11T12:46:34.000Z,30
2018-10-11T12:47:34.000Z,30
2018-10-11T12:48:34.000Z,30
2018-10-11T12:49:34.000Z,30
2018-10-11T12:51:34.000Z,30
2018-10-11T12:52:34.000Z,30
2018-10-11T12:54:34.000Z,30
2018-10-11T12:55:34.000Z,30
2018-10-11T12:56:34.000Z,30
2018-10-11T12:58:34.000Z,30
2018-10-11T12:59:34.000Z,30
2018-10-11T13:01:34.000Z,30
2018-10-11T13:02:34.000Z,30
2018-10-11T13:03:34.000Z,30
2018-10-11T13:04:34.000Z,30
2018-10-11T13:05:34.000Z,30
2018-10-11T13:06:34.000Z,30
2018-10-11T13:07:34.000Z,30
2018-10-11T13:08:34.000Z,30
2018-10-11T13:09:34.000Z,30
2018-10-11T13:10:34.000Z,29
2018-10-11T13:11:34.000Z,30
2018-10-11T13:12:34.000Z,29
2018-10-11T13:13:34.000Z,29
2018-10-11T13:14:34.000Z,29
2018-10-11T13:15:34.000Z,29
2018-10-11T13:16:34.000Z,29
2018-10-11T13:17:34.000Z,29
2018-10-11T13:18:34.000Z,29
2018-10-11T13:19:34.000Z,29
2018-10-11T13:20:34.000Z,29
2018-10-11T13:22:34.000Z,29
2018-10-11T13:23:34.000Z,29
2018-10-11T13:25:34.000Z,29
2018-10-11T13:27:34.000Z,29
2018-10-11T13:28:34.000Z,29
2018-10-11T13:29:34.000Z,29
2018-10-11T13:30:34.000Z,29
2018-10-11T13:31:34.000Z,29
2018-10-11T13:32:34.000Z,29
2018-10-11T13:34:34.000Z,29
2018-10-11T13:35:34.000Z,29
2018-10-11T13:36:34.000Z,29
2018-10-11T13:37:34.000Z,29
2018-10-11T13:38:34.000Z,29
2018-10-11T13:39:34.000Z,29
2018-10-11T13:40:34.000Z,29
2018-10-11T13:41:34.000Z,29
2018-10-11T13:42:34.000Z,29
2018-10-11T13:44:34.000Z,29
2018-10-11T13:45:34.000Z,28
2018-10-11T13:46:34.000Z,28
2018-10-11T13:47:34.000Z,27
2018-10-11T13:49:34.000Z,26
2018-10-11T13:50:34.000Z,26
2018-10-11T13:51:34.000Z,26
2018-10-11T13:53:34.000Z,26
2018-10-11T13:54:34.000Z,26
2018-10-11T13:55:34.000Z,26
2018-10-11T13:56:34.000Z,27
2018-10-11T13:57:34.000Z,27
2018-10-11T13:58:34.000Z,27
2018-10-11T14:00:34.000Z,27
2018-10-11T14:01:34.000Z,28
2018-10-11T14:02:34.000Z,28
2018-10-11T14:04:34.000Z,28
2018-10-11T14:05:34.000Z,28
2018-10-11T14:06:34.000Z,28
2018-10-11T14:08:34.000Z,28
2018-10-11T14:09:34.000Z,28
2018-10-11T14:10:34.000Z,28
2018-10-11T14:11:34.000Z,28
2018-10-11T14:12:34.000Z,29
2018-10-11T14:13:34.000Z,28
2018-10-11T14:14:34.000Z,29
2018-10-11T14:15:34.000Z,28
2018-10-11T14:16:34.000Z,29
2018-10-11T14:17:34.000Z,29
2018-10-11T14:18:34.000Z,28
2018-10-11T14:19:34.000Z,29
2018-10-11T14:20:34.000Z,29
2018-10-11T14:21:34.000Z,29
2018-10-11T14:22:34.000Z,29
2018-10-11T14:24:34.000Z,28
2018-10-11T14:25:34.000Z,29
2018-10-11T14:26:34.000Z,29
2018-10-11T14:27:34.000Z,29
2018-10-11T14:28:34.000Z,29
2018-10-11T14:30:34.000Z,29
2018-10-11T14:31:34.000Z,29
2018-10-11T14:32:34.000Z,29
2018-10-11T14:33:34.000Z,29
2018-10-11T14:34:34.000Z,29
2018-10-11T14:35:34.000Z,29
2018-10-11T14:36:34.000Z,29
2018-10-11T14:37:34.000Z,29
2018-10-11T14:38:34.000Z,29
2018-10-11T14:39:34.000Z,29
2018-10-11T14:40:34.000Z,29
2018-10-11T14:41:34.000Z,29
2018-10-11T14:42:34.000Z,29
2018-10-11T14:43:34.000Z,29
2018-10-11T14:44:34.000Z,29
2018-10-11T14:45:34.000Z,29
2018-10-11T14:46:34.000Z,29
2018-10-11T14:48:34.000Z,29
2018-10-11T14:49:34.000Z,29
2018-10-11T14:51:34.000Z,29
2018-10-11T14:52:34.000Z,29
2018-10-11T14:53:34.000Z,29
2018-10-11T14:55:34.000Z,29
2018-10-11T14:56:34.000Z,29
2018-10-11T14:57:34.000Z,29
2018-10-11T14:58:34.000Z,29
2018-10-11T14:59:34.000Z,29
2018-10-11T15:00:34.000Z,29
2018-10-11T15:01:34.000Z,29
2018-10-11T15:02:34.000Z,29
2018-10-11T15:03:34.000Z,29
2018-10-11T15:04:34.000Z,29
2018-10-11T15:05:34.000Z,29
2018-10-11T15:06:34.000Z,29
2018-10-11T15:07:34.000Z,29
2018-10-11T15:09:34.000Z,29
2018-10-11T15:10:34.000Z,29
2018-10-11T15:12:34.000Z,29
2018-10-11T15:13:34.000Z,30
2018-10-11T15:14:34.000Z,29
2018-10-11T15:15:34.000Z,30
2018-10-11T15:16:34.000Z,30
2018-10-11T15:17:34.000Z,29
2018-10-11T15:18:34.000Z,30
2018-10-11T15:19:34.000Z,30
2018-10-11T15:20:34.000Z,29
2018-10-11T15:21:34.000Z,30
2018-10-11T15:22:34.000Z,29
2018-10-11T15:23:34.000Z,30
2018-10-11T15:24:34.000Z,30
2018-10-11T15:25:34.000Z,29
2018-10-11T15:27:34.000Z,29
2018-10-11T15:29:34.000Z,29
2018-10-11T15:30:34.000Z,30
2018-10-11T15:31:34.000Z,30
2018-10-11T15:32:34.000Z,30
2018-10-11T15:33:34.000Z,30
2018-10-11T15:35:34.000Z,30
2018-10-11T15:36:34.000Z,30
2018-10-11T15:37:34.000Z,30
2018-10-11T15:38:34.000Z,30
2018-10-11T15:39:34.000Z,30
2018-10-11T15:40:34.000Z,30
2018-10-11T15:41:34.000Z,30
2018-10-11T15:42:34.000Z,30
2018-10-11T15:43:34.000Z,30
2018-10-11T15:44:34.000Z,30
2018-10-11T15:45:34.000Z,30
2018-10-11T15:46:34.000Z,30
2018-10-11T15:47:34.000Z,30
2018-10-11T15:48:34.000Z,30
2018-10-11T15:49:34.000Z,30
2018-10-11T15:50:34.000Z,30
2018-10-11T15:51:34.000Z,30
2018-10-11T15:52:34.000Z,30
2018-10-11T15:54:34.000Z,30
2018-10-11T15:55:34.000Z,30
2018-10-11T15:57:34.000Z,30
2018-10-11T15:58:34.000Z,30
2018-10-11T15:59:34.000Z,30
2018-10-11T16:00:34.000Z,30
2018-10-11T16:02:34.000Z,30
2018-10-11T16:03:34.000Z,31
2018-10-11T16:04:34.000Z,31
2018-10-11T16:05:34.000Z,30
2018-10-11T16:07:34.000Z,30
2018-10-11T16:08:34.000Z,30
2018-10-11T16:09:34.000Z,30
2018-10-11T16:10:34.000Z,30
2018-10-11T16:11:34.000Z,31
2018-10-11T16:12:34.000Z,30
2018-10-11T16:14:34.000Z,30
2018-10-11T16:15:34.000Z,30
2018-10-11T16:16:34.000Z,31
2018-10-11T16:17:34.000Z,30
2018-10-11T16:18:34.000Z,30
2018-10-11T16:19:34.000Z,31